createdAt,value
2023-02-17T00:00:05.779Z,9.70
2023-02-17T00:02:35.081Z,9.70
2023-02-17T00:05:02.913Z,9.70
2023-02-17T00:07:32.798Z,9.70
2023-02-17T00:10:00.868Z,9.70
2023-02-17T00:12:28.748Z,9.70
2023-02-17T00:14:56.596Z,9.70
2023-02-17T00:17:24.569Z,9.70
2023-02-17T00:19:55.053Z,9.70
2023-02-17T00:22:22.992Z,9.70
2023-02-17T00:24:50.880Z,9.70
2023-02-17T00:27:19.501Z,9.70
2023-02-17T00:29:47.331Z,9.70
2023-02-17T00:32:15.214Z,9.70
2023-02-17T00:34:43.053Z,9.70
2023-02-17T00:37:12.255Z,9.70
2023-02-17T00:39:40.089Z,9.70
2023-02-17T00:42:07.965Z,9.70
2023-02-17T00:44:35.975Z,9.60
2023-02-17T00:50:44.353Z,9.60
2023-02-17T00:53:13.557Z,9.50
2023-02-17T00:55:41.428Z,9.50
2023-02-17T00:58:09.149Z,9.50
2023-02-17T01:00:36.867Z,9.60
2023-02-17T01:03:05.189Z,9.60
2023-02-17T01:05:33.130Z,9.50
2023-02-17T01:08:00.831Z,9.40
2023-02-17T01:10:29.914Z,9.40
2023-02-17T01:12:57.667Z,9.40
2023-02-17T01:15:25.365Z,9.40
2023-02-17T01:17:53.076Z,9.40
2023-02-17T01:20:21.019Z,9.40
2023-02-17T01:22:48.734Z,9.40
2023-02-17T01:25:16.468Z,9.40
2023-02-17T01:27:47.009Z,9.40
2023-02-17T01:30:15.029Z,9.40
2023-02-17T01:32:42.737Z,9.50
2023-02-17T01:35:10.586Z,9.50
2023-02-17T01:37:38.362Z,9.60
2023-02-17T01:40:07.494Z,9.70
2023-02-17T01:42:35.439Z,9.80
2023-02-17T01:45:41.385Z,9.80
2023-02-17T01:48:13.285Z,9.80
2023-02-17T01:50:45.199Z,9.80
2023-02-17T01:53:18.004Z,9.80
2023-02-17T01:55:46.936Z,9.80
2023-02-17T01:58:18.892Z,9.80
2023-02-17T02:00:48.897Z,9.80
2023-02-17T02:03:17.128Z,9.60
2023-02-17T02:05:45.238Z,9.60
2023-02-17T02:08:14.601Z,9.60
2023-02-17T02:10:42.396Z,9.70
2023-02-17T02:13:10.554Z,9.60
2023-02-17T02:15:44.451Z,9.60
2023-02-17T02:18:30.243Z,9.60
2023-02-17T02:21:42.918Z,9.60
2023-02-17T02:24:21.266Z,9.60
2023-02-17T02:27:16.894Z,9.40
2023-02-17T02:30:15.004Z,9.40
2023-02-17T02:32:51.301Z,9.40
2023-02-17T02:35:26.484Z,9.40
2023-02-17T02:38:01.239Z,9.50
2023-02-17T02:40:33.977Z,9.40
2023-02-17T02:43:03.987Z,9.30
2023-02-17T02:45:32.120Z,9.30
2023-02-17T02:48:01.340Z,9.30
2023-02-17T02:50:41.957Z,9.30
2023-02-17T02:53:32.998Z,9.30
2023-02-17T02:56:09.628Z,9.30
2023-02-17T02:58:45.813Z,9.30
2023-02-17T03:01:21.047Z,9.00
2023-02-17T03:03:54.946Z,8.90
2023-02-17T03:06:30.401Z,8.90
2023-02-17T03:09:04.078Z,8.90
2023-02-17T03:11:34.894Z,8.80
2023-02-17T03:14:04.939Z,8.80
2023-02-17T03:16:33.631Z,8.80
2023-02-17T03:19:02.948Z,8.90
2023-02-17T03:21:40.697Z,9.00
2023-02-17T03:24:09.392Z,8.90
2023-02-17T03:26:37.261Z,8.90
2023-02-17T03:29:05.506Z,8.80
2023-02-17T03:31:33.762Z,8.90
2023-02-17T03:34:03.042Z,9.00
2023-02-17T03:36:30.966Z,9.00
2023-02-17T03:38:58.936Z,9.00
2023-02-17T03:41:26.921Z,9.10
2023-02-17T03:43:55.002Z,9.10
2023-02-17T03:46:23.190Z,9.10
2023-02-17T03:48:51.120Z,9.10
2023-02-17T03:51:21.886Z,9.20
2023-02-17T03:54:09.692Z,9.30
2023-02-17T03:56:37.713Z,9.30
2023-02-17T03:59:05.902Z,9.40
2023-02-17T04:01:33.807Z,9.40
2023-02-17T04:04:01.918Z,9.30
2023-02-17T04:06:31.226Z,9.30
2023-02-17T04:08:59.047Z,9.30
2023-02-17T04:11:26.913Z,9.30
2023-02-17T04:13:54.713Z,9.30
2023-02-17T04:16:22.604Z,9.30
2023-02-17T04:18:50.457Z,9.30
2023-02-17T04:21:18.272Z,9.30
2023-02-17T04:23:47.524Z,9.40
2023-02-17T04:26:15.488Z,9.40
2023-02-17T04:28:43.806Z,9.30
2023-02-17T04:31:11.778Z,9.20
2023-02-17T04:33:39.827Z,9.10
2023-02-17T04:36:08.058Z,9.10
2023-02-17T04:38:36.415Z,9.10
2023-02-17T04:41:06.228Z,9.20
2023-02-17T04:43:34.450Z,9.20
2023-02-17T04:46:02.506Z,9.20
2023-02-17T04:48:30.376Z,9.30
2023-02-17T04:50:58.206Z,9.30
2023-02-17T04:53:26.038Z,9.40
2023-02-17T04:55:54.411Z,9.50
2023-02-17T04:58:23.634Z,9.60
2023-02-17T05:00:51.820Z,9.60
2023-02-17T05:03:21.242Z,9.30
2023-02-17T05:05:50.166Z,9.30
2023-02-17T05:08:18.129Z,9.30
2023-02-17T05:10:45.959Z,9.30
2023-02-17T05:13:13.748Z,9.30
2023-02-17T05:15:44.366Z,9.20
2023-02-17T05:18:12.499Z,9.30
2023-02-17T05:20:40.351Z,9.20
2023-02-17T05:23:08.174Z,9.00
2023-02-17T05:25:36.053Z,9.00
2023-02-17T05:28:03.890Z,8.90
2023-02-17T05:30:31.770Z,8.90
2023-02-17T05:33:00.998Z,8.80
2023-02-17T05:35:28.874Z,8.80
2023-02-17T05:37:56.687Z,8.70
2023-02-17T05:40:24.573Z,8.70
2023-02-17T05:42:52.349Z,8.80
2023-02-17T05:45:20.482Z,8.80
2023-02-17T05:47:48.458Z,8.90
2023-02-17T05:50:17.897Z,8.90
2023-02-17T05:52:45.706Z,8.90
2023-02-17T05:55:13.526Z,8.90
2023-02-17T05:57:41.329Z,9.00
2023-02-17T06:00:10.461Z,9.10
2023-02-17T06:02:38.304Z,9.10
2023-02-17T06:05:06.610Z,9.10
2023-02-17T06:07:35.835Z,9.10
2023-02-17T06:10:03.844Z,9.10
2023-02-17T06:12:31.834Z,9.00
2023-02-17T06:14:59.709Z,8.90
2023-02-17T06:17:27.737Z,9.00
2023-02-17T06:19:55.549Z,9.00
2023-02-17T06:22:23.443Z,9.10
2023-02-17T06:24:52.604Z,9.10
2023-02-17T06:27:20.438Z,9.10
2023-02-17T06:29:48.248Z,9.20
2023-02-17T06:32:16.074Z,9.20
2023-02-17T06:34:43.920Z,9.20
2023-02-17T06:37:11.802Z,9.30
2023-02-17T06:39:39.609Z,9.30
2023-02-17T06:42:08.740Z,9.30
2023-02-17T06:44:36.542Z,9.40
2023-02-17T06:47:04.473Z,9.40
2023-02-17T06:49:32.283Z,9.40
2023-02-17T06:52:00.134Z,9.40
2023-02-17T06:54:28.152Z,9.40
2023-02-17T06:56:55.965Z,9.40
2023-02-17T06:59:25.149Z,9.40
2023-02-17T07:01:53.115Z,9.40
2023-02-17T07:04:20.974Z,9.40
2023-02-17T07:06:48.805Z,9.40
2023-02-17T07:09:16.683Z,9.50
2023-02-17T07:11:45.194Z,9.50
2023-02-17T07:14:13.069Z,9.60
2023-02-17T07:16:42.388Z,9.60
2023-02-17T07:19:10.207Z,9.60
2023-02-17T07:21:37.999Z,9.70
2023-02-17T07:24:06.238Z,9.60
2023-02-17T07:26:36.606Z,9.70
2023-02-17T07:29:04.536Z,9.60
2023-02-17T07:31:32.546Z,9.70
2023-02-17T07:34:02.406Z,9.70
2023-02-17T07:36:31.160Z,9.70
2023-02-17T07:38:59.054Z,9.70
2023-02-17T07:41:28.592Z,9.70
2023-02-17T07:43:57.783Z,9.80
2023-02-17T07:46:26.347Z,9.80
2023-02-17T07:48:54.840Z,9.80
2023-02-17T07:51:24.085Z,9.80
2023-02-17T07:53:53.239Z,9.90
2023-02-17T07:56:22.386Z,10.00
2023-02-17T07:58:51.058Z,10.00
2023-02-17T08:01:20.917Z,10.10
2023-02-17T08:03:49.811Z,10.10
2023-02-17T08:06:20.143Z,10.10
2023-02-17T08:09:07.964Z,10.20
2023-02-17T08:11:53.960Z,10.20
2023-02-17T08:14:22.878Z,10.20
2023-02-17T08:16:51.029Z,10.20
2023-02-17T08:19:19.581Z,10.30
2023-02-17T08:21:47.602Z,10.30
2023-02-17T08:24:19.379Z,10.30
2023-02-17T08:26:47.368Z,10.30
2023-02-17T08:29:15.243Z,10.40
2023-02-17T08:31:44.140Z,10.40
2023-02-17T08:34:13.553Z,10.50
2023-02-17T08:36:41.517Z,10.50
2023-02-17T08:39:14.046Z,10.50
2023-02-17T08:41:44.193Z,10.60
2023-02-17T08:44:14.222Z,10.70
2023-02-17T08:46:43.744Z,10.80
2023-02-17T08:49:12.048Z,10.80
2023-02-17T08:51:39.928Z,10.80
2023-02-17T08:54:10.250Z,10.80
2023-02-17T08:56:39.854Z,10.80
2023-02-17T08:59:11.094Z,10.80
2023-02-17T09:01:40.029Z,10.80
2023-02-17T09:04:09.796Z,10.70
2023-02-17T09:06:40.900Z,10.70
2023-02-17T09:09:11.614Z,10.70
2023-02-17T09:11:40.322Z,10.60
2023-02-17T09:14:10.014Z,10.70
2023-02-17T09:16:40.407Z,10.70
2023-02-17T09:19:09.388Z,10.60
2023-02-17T09:21:37.200Z,10.60
2023-02-17T09:24:05.528Z,10.60
2023-02-17T09:26:35.162Z,10.70
2023-02-17T09:29:03.833Z,10.70
2023-02-17T09:31:33.204Z,10.70
2023-02-17T09:34:01.188Z,10.70
2023-02-17T09:36:31.528Z,10.70
2023-02-17T09:39:00.181Z,10.70
2023-02-17T09:41:33.015Z,10.70
2023-02-17T09:44:01.330Z,10.70
2023-02-17T09:46:32.303Z,10.80
2023-02-17T09:49:05.037Z,10.80
2023-02-17T09:51:38.433Z,10.90
2023-02-17T09:54:11.601Z,11.10
2023-02-17T09:56:43.114Z,11.10
2023-02-17T09:59:17.070Z,11.30
2023-02-17T10:01:47.095Z,11.30
2023-02-17T10:04:21.413Z,11.40
2023-02-17T10:06:54.506Z,11.40
2023-02-17T10:09:29.120Z,11.40
2023-02-17T10:12:02.977Z,11.40
2023-02-17T10:14:35.971Z,11.50
2023-02-17T10:17:09.126Z,11.50
2023-02-17T10:19:46.465Z,11.60
2023-02-17T10:22:18.898Z,11.60
2023-02-17T10:24:46.902Z,11.70
2023-02-17T10:27:35.445Z,11.70
2023-02-17T10:30:15.996Z,11.80
2023-02-17T10:32:59.859Z,11.90
2023-02-17T10:35:46.001Z,12.00
2023-02-17T10:38:18.493Z,12.10
2023-02-17T10:40:50.504Z,12.20
2023-02-17T10:43:23.855Z,12.20
2023-02-17T10:45:53.396Z,12.20
2023-02-17T10:48:25.682Z,12.20
2023-02-17T10:50:57.720Z,12.30
2023-02-17T10:53:29.871Z,12.30
2023-02-17T10:56:04.186Z,12.30
2023-02-17T10:58:36.416Z,12.30
2023-02-17T11:01:06.435Z,12.30
2023-02-17T11:03:36.805Z,12.40
2023-02-17T11:06:16.032Z,12.40
2023-02-17T11:08:49.958Z,12.50
2023-02-17T11:11:19.863Z,12.60
2023-02-17T11:14:02.174Z,12.70
2023-02-17T11:16:35.941Z,12.80
2023-02-17T11:19:05.168Z,12.90
2023-02-17T11:21:35.946Z,13.00
2023-02-17T11:24:06.845Z,13.20
2023-02-17T11:26:36.401Z,13.40
2023-02-17T11:29:11.731Z,13.50
2023-02-17T11:31:39.765Z,13.80
2023-02-17T11:34:15.966Z,14.00
2023-02-17T11:36:47.028Z,14.10
2023-02-17T11:39:19.128Z,14.10
2023-02-17T11:41:46.932Z,14.00
2023-02-17T11:44:24.213Z,14.00
2023-02-17T11:47:00.972Z,14.10
2023-02-17T11:49:51.284Z,14.20
2023-02-17T11:52:49.812Z,14.10
2023-02-17T11:55:23.495Z,14.20
2023-02-17T11:58:06.994Z,14.20
2023-02-17T12:00:42.681Z,14.50
2023-02-17T12:03:39.785Z,14.60
2023-02-17T12:06:15.047Z,14.60
2023-02-17T12:09:03.891Z,14.60
2023-02-17T12:11:37.418Z,14.50
2023-02-17T12:14:18.782Z,14.40
2023-02-17T12:16:52.918Z,14.40
2023-02-17T12:19:39.417Z,14.30
2023-02-17T12:22:16.928Z,14.20
2023-02-17T12:24:59.231Z,14.20
2023-02-17T12:27:38.720Z,14.20
2023-02-17T12:30:26.708Z,14.00
2023-02-17T12:33:12.688Z,13.90
2023-02-17T12:35:50.982Z,13.90
2023-02-17T12:38:24.966Z,14.00
2023-02-17T12:40:59.265Z,14.00
2023-02-17T12:43:30.262Z,14.10
2023-02-17T12:46:01.228Z,14.00
2023-02-17T12:48:35.644Z,14.00
2023-02-17T12:51:09.661Z,13.90
2023-02-17T12:53:48.790Z,13.90
2023-02-17T12:56:50.428Z,13.80
2023-02-17T12:59:19.958Z,13.80
2023-02-17T13:01:57.242Z,13.80
2023-02-17T13:04:26.497Z,13.70
2023-02-17T13:07:03.257Z,13.60
2023-02-17T13:09:34.981Z,13.50
2023-02-17T13:12:16.308Z,13.50
2023-02-17T13:14:46.830Z,13.40
2023-02-17T13:17:26.126Z,13.30
2023-02-17T13:20:25.425Z,13.30
2023-02-17T13:23:06.202Z,13.30
2023-02-17T13:25:37.659Z,13.40
2023-02-17T13:28:36.159Z,13.40
2023-02-17T13:31:14.777Z,13.40
2023-02-17T13:33:45.551Z,13.40
2023-02-17T13:36:16.663Z,13.30
2023-02-17T13:38:56.415Z,13.30
2023-02-17T13:41:24.407Z,13.20
2023-02-17T13:43:53.515Z,13.20
2023-02-17T13:46:25.066Z,13.20
2023-02-17T13:49:01.768Z,13.20
2023-02-17T13:51:31.653Z,13.10
2023-02-17T13:54:06.491Z,13.20
2023-02-17T13:56:34.600Z,13.10
2023-02-17T13:59:12.173Z,13.10
2023-02-17T14:01:44.090Z,13.10
2023-02-17T14:04:24.183Z,13.10
2023-02-17T14:06:52.926Z,13.10
2023-02-17T14:09:26.609Z,13.00
2023-02-17T14:11:56.462Z,13.10
2023-02-17T14:14:31.771Z,13.00
2023-02-17T14:17:02.477Z,13.10
2023-02-17T14:19:30.851Z,13.00
2023-02-17T14:22:01.966Z,13.10
2023-02-17T14:24:33.203Z,13.10
2023-02-17T14:27:03.243Z,13.10
2023-02-17T14:29:43.123Z,13.10
2023-02-17T14:32:29.927Z,13.10
2023-02-17T14:35:09.020Z,13.10
2023-02-17T14:37:36.974Z,13.20
2023-02-17T14:40:05.544Z,13.20
2023-02-17T14:42:34.048Z,13.20
2023-02-17T14:45:03.145Z,13.20
2023-02-17T14:47:30.939Z,13.20
2023-02-17T14:49:58.743Z,13.20
2023-02-17T14:52:26.984Z,13.20
2023-02-17T14:54:54.887Z,13.20
2023-02-17T14:57:28.318Z,13.20
2023-02-17T14:59:57.643Z,13.20
2023-02-17T15:02:26.860Z,13.20
2023-02-17T15:04:54.700Z,13.20
2023-02-17T15:07:22.518Z,13.30
2023-02-17T15:09:50.556Z,13.20
2023-02-17T15:12:21.817Z,13.20
2023-02-17T15:14:49.782Z,13.30
2023-02-17T15:17:17.637Z,13.30
2023-02-17T15:19:46.796Z,13.20
2023-02-17T15:22:15.326Z,13.30
2023-02-17T15:24:43.208Z,13.30
2023-02-17T15:27:14.009Z,13.30
2023-02-17T15:29:42.092Z,13.30
2023-02-17T15:32:17.952Z,13.30
2023-02-17T15:34:47.708Z,13.30
2023-02-17T15:37:15.549Z,13.30
2023-02-17T15:39:43.398Z,13.30
2023-02-17T15:42:14.618Z,13.30
2023-02-17T15:44:46.587Z,13.30
2023-02-17T15:47:17.500Z,13.30
2023-02-17T15:49:46.959Z,13.30
2023-02-17T15:52:15.714Z,13.30
2023-02-17T15:54:44.330Z,13.30
2023-02-17T15:57:21.530Z,13.20
2023-02-17T15:59:49.426Z,13.20
2023-02-17T16:02:21.330Z,13.20
2023-02-17T16:04:50.697Z,13.20
2023-02-17T16:07:18.541Z,13.20
2023-02-17T16:09:46.303Z,13.20
2023-02-17T16:12:18.663Z,13.10
2023-02-17T16:14:46.581Z,13.10
2023-02-17T16:17:16.844Z,13.10
2023-02-17T16:19:44.831Z,13.10
2023-02-17T16:22:14.180Z,13.10
2023-02-17T16:24:42.020Z,13.10
2023-02-17T16:27:14.090Z,13.10
2023-02-17T16:29:42.560Z,13.00
2023-02-17T16:32:12.662Z,13.00
2023-02-17T16:34:40.605Z,13.00
2023-02-17T16:37:15.029Z,13.00
2023-02-17T16:39:43.690Z,12.90
2023-02-17T16:42:13.104Z,12.90
2023-02-17T16:44:40.974Z,12.90
2023-02-17T16:47:17.630Z,12.90
2023-02-17T16:49:48.190Z,12.90
2023-02-17T16:52:25.177Z,12.80
2023-02-17T16:54:53.409Z,12.80
2023-02-17T16:57:22.064Z,12.70
2023-02-17T16:59:49.901Z,12.70
2023-02-17T17:02:17.809Z,12.70
2023-02-17T17:04:45.696Z,12.70
2023-02-17T17:07:15.983Z,12.70
2023-02-17T17:09:48.663Z,12.60
2023-02-17T17:12:24.311Z,12.60
2023-02-17T17:14:52.119Z,12.60
2023-02-17T17:17:20.048Z,12.60
2023-02-17T17:19:47.908Z,12.60
2023-02-17T17:22:15.805Z,12.60
2023-02-17T17:24:44.974Z,12.60
2023-02-17T17:27:12.871Z,12.60
2023-02-17T17:29:40.679Z,12.60
2023-02-17T17:32:09.695Z,12.60
2023-02-17T17:34:37.628Z,12.50
2023-02-17T17:37:05.453Z,12.50
2023-02-17T17:39:33.272Z,12.50
2023-02-17T17:42:02.491Z,12.50
2023-02-17T17:44:30.279Z,12.50
2023-02-17T17:46:58.075Z,12.50
2023-02-17T17:49:26.162Z,12.50
2023-02-17T17:51:53.984Z,12.50
2023-02-17T17:54:22.055Z,12.50
2023-02-17T17:56:49.880Z,12.50
2023-02-17T17:59:19.640Z,12.50
2023-02-17T18:01:47.503Z,12.50
2023-02-17T18:04:15.566Z,12.40
2023-02-17T18:06:46.275Z,12.40
2023-02-17T18:09:31.369Z,12.50
2023-02-17T18:12:05.485Z,12.50
2023-02-17T18:14:37.724Z,12.50
2023-02-17T18:17:06.233Z,12.50
2023-02-17T18:19:34.364Z,12.50
2023-02-17T18:22:02.255Z,12.50
2023-02-17T18:24:30.209Z,12.50
2023-02-17T18:26:58.130Z,12.60
2023-02-17T18:29:25.990Z,12.60
2023-02-17T18:35:55.178Z,12.60
2023-02-17T18:38:22.901Z,12.50
2023-02-17T18:40:51.966Z,12.60
2023-02-17T18:43:19.702Z,12.50
2023-02-17T18:45:49.039Z,12.60
2023-02-17T18:48:57.518Z,12.50
2023-02-17T18:51:27.553Z,12.50
2023-02-17T18:53:57.241Z,12.50
2023-02-17T18:56:26.937Z,12.50
2023-02-17T18:58:56.017Z,12.50
2023-02-17T19:01:25.647Z,12.50
2023-02-17T19:03:54.137Z,12.60
2023-02-17T19:06:23.795Z,12.60
2023-02-17T19:08:53.396Z,12.60
2023-02-17T19:11:23.161Z,12.60
2023-02-17T19:13:51.712Z,12.60
2023-02-17T19:16:21.958Z,12.60
2023-02-17T19:18:49.786Z,12.60
2023-02-17T19:21:17.566Z,12.60
2023-02-17T19:23:45.589Z,12.60
2023-02-17T19:26:16.054Z,12.60
2023-02-17T19:28:44.237Z,12.60
2023-02-17T19:31:14.382Z,12.70
2023-02-17T19:33:42.903Z,12.70
2023-02-17T19:36:12.985Z,12.70
2023-02-17T19:38:41.153Z,12.70
2023-02-17T19:41:11.330Z,12.70
2023-02-17T19:43:41.236Z,12.70
2023-02-17T19:46:12.346Z,12.70
2023-02-17T19:48:40.289Z,12.70
2023-02-17T19:51:09.731Z,12.70
2023-02-17T19:53:37.844Z,12.70
2023-02-17T19:56:12.119Z,12.70
2023-02-17T19:58:42.373Z,12.70
2023-02-17T20:01:12.238Z,12.60
2023-02-17T20:03:40.774Z,12.60
2023-02-17T20:06:10.530Z,12.50
2023-02-17T20:08:39.343Z,12.40
2023-02-17T20:11:08.395Z,12.40
2023-02-17T20:13:45.212Z,12.30
2023-02-17T20:16:16.810Z,12.20
2023-02-17T20:18:47.213Z,12.20
2023-02-17T20:21:18.135Z,12.20
2023-02-17T20:23:45.972Z,12.20
2023-02-17T20:26:16.024Z,12.20
2023-02-17T20:28:44.029Z,12.10
2023-02-17T20:31:12.628Z,12.10
2023-02-17T20:33:42.214Z,12.10
2023-02-17T20:36:11.702Z,12.10
2023-02-17T20:38:39.558Z,12.10
2023-02-17T20:41:08.480Z,12.10
2023-02-17T20:43:38.628Z,12.10
2023-02-17T20:46:07.618Z,12.10
2023-02-17T20:48:35.758Z,12.10
2023-02-17T20:51:05.735Z,12.10
2023-02-17T20:53:33.603Z,12.20
2023-02-17T20:56:01.626Z,12.20
2023-02-17T20:58:29.680Z,12.20
2023-02-17T21:00:57.706Z,12.20
2023-02-17T21:03:25.570Z,12.30
2023-02-17T21:05:53.360Z,12.30
2023-02-17T21:08:22.492Z,12.30
2023-02-17T21:10:50.280Z,12.30
2023-02-17T21:13:18.094Z,12.40
2023-02-17T21:15:46.420Z,12.40
2023-02-17T21:18:14.232Z,12.40
2023-02-17T21:20:42.378Z,12.30
2023-02-17T21:23:10.252Z,12.30
2023-02-17T21:25:39.463Z,12.30
2023-02-17T21:28:07.282Z,12.30
2023-02-17T21:30:35.174Z,12.30
2023-02-17T21:33:03.015Z,12.30
2023-02-17T21:35:30.876Z,12.30
2023-02-17T21:37:58.677Z,12.30
2023-02-17T21:40:26.490Z,12.30
2023-02-17T21:43:13.302Z,12.30
2023-02-17T21:45:41.117Z,12.30
2023-02-17T21:48:08.929Z,12.30
2023-02-17T21:50:36.772Z,12.20
2023-02-17T21:53:04.553Z,12.20
2023-02-17T21:55:32.957Z,12.30
2023-02-17T21:58:02.201Z,12.20
2023-02-17T22:00:29.992Z,12.20
2023-02-17T22:02:57.867Z,12.10
2023-02-17T22:05:25.830Z,12.10
2023-02-17T22:07:53.614Z,12.10
2023-02-17T22:10:21.536Z,12.10
2023-02-17T22:12:50.348Z,12.10
2023-02-17T22:16:09.512Z,12.10
2023-02-17T22:18:38.886Z,12.00
2023-02-17T22:21:09.730Z,12.00
2023-02-17T22:23:37.719Z,12.00
2023-02-17T22:26:09.954Z,12.00
2023-02-17T22:28:38.477Z,12.00
2023-02-17T22:31:07.116Z,12.00
2023-02-17T22:33:35.891Z,12.00
2023-02-17T22:36:08.251Z,12.00
2023-02-17T22:38:36.972Z,11.90
2023-02-17T22:41:07.027Z,11.90
2023-02-17T22:43:37.102Z,11.90
2023-02-17T22:46:07.202Z,11.90
2023-02-17T22:48:37.528Z,11.90
2023-02-17T22:51:07.957Z,11.90
2023-02-17T22:53:36.868Z,12.00
2023-02-17T22:56:06.476Z,12.00
2023-02-17T22:58:35.185Z,12.00
2023-02-17T23:01:05.480Z,12.00
2023-02-17T23:03:54.420Z,12.00
2023-02-17T23:06:26.255Z,12.00
2023-02-17T23:08:54.827Z,12.00
2023-02-17T23:11:39.470Z,12.00
2023-02-17T23:14:07.573Z,11.90
2023-02-17T23:16:43.126Z,11.90
2023-02-17T23:19:13.680Z,11.80
2023-02-17T23:21:46.648Z,11.80
2023-02-17T23:24:16.111Z,11.80
2023-02-17T23:26:44.232Z,11.80
2023-02-17T23:29:12.255Z,11.80
2023-02-17T23:31:40.456Z,11.80
2023-02-17T23:34:08.721Z,11.80
2023-02-17T23:36:39.403Z,11.80
2023-02-17T23:39:09.094Z,11.70
2023-02-17T23:41:37.846Z,11.70
2023-02-17T23:44:07.801Z,11.80
2023-02-17T23:46:36.320Z,11.80
2023-02-17T23:49:04.403Z,11.80
2023-02-17T23:51:32.333Z,11.90
2023-02-17T23:54:00.252Z,11.90
2023-02-17T23:56:33.363Z,11.90
2023-02-17T23:59:02.154Z,11.90
